createdAt,value
2022-12-28T00:02:26.825Z,87.67
2022-12-28T00:04:54.875Z,87.54
2022-12-28T00:07:23.020Z,87.67
2022-12-28T00:09:51.022Z,87.60
2022-12-28T00:12:19.007Z,87.47
2022-12-28T00:14:47.064Z,87.43
2022-12-28T00:17:15.101Z,87.31
2022-12-28T00:19:44.552Z,87.38
2022-12-28T00:22:12.792Z,87.30
2022-12-28T00:24:40.826Z,87.31
2022-12-28T00:27:08.967Z,87.13
2022-12-28T00:29:37.033Z,87.15
2022-12-28T00:32:05.803Z,87.12
2022-12-28T00:34:33.845Z,87.05
2022-12-28T00:37:08.624Z,87.05
2022-12-28T00:39:39.595Z,86.89
2022-12-28T00:42:07.587Z,87.07
2022-12-28T00:44:35.808Z,86.98
2022-12-28T00:47:03.765Z,86.79
2022-12-28T00:49:31.925Z,86.74
2022-12-28T00:51:59.961Z,86.64
2022-12-28T00:54:33.889Z,86.54
2022-12-28T00:57:01.895Z,86.28
2022-12-28T00:59:29.878Z,86.24
2022-12-28T01:01:58.008Z,86.23
2022-12-28T01:04:26.297Z,86.19
2022-12-28T01:06:54.454Z,86.18
2022-12-28T01:09:22.595Z,86.17
2022-12-28T01:11:52.000Z,86.30
2022-12-28T01:14:20.039Z,86.22
2022-12-28T01:16:48.197Z,86.28
2022-12-28T01:19:20.176Z,86.39
2022-12-28T01:21:49.369Z,86.33
2022-12-28T01:24:17.556Z,86.37
2022-12-28T01:26:45.667Z,86.58
2022-12-28T01:29:15.032Z,86.74
2022-12-28T01:31:43.153Z,86.62
2022-12-28T01:34:11.221Z,86.75
2022-12-28T01:36:39.779Z,86.82
2022-12-28T01:39:08.024Z,86.75
2022-12-28T01:41:39.576Z,86.83
2022-12-28T01:44:40.968Z,87.15
2022-12-28T01:47:12.896Z,87.22
2022-12-28T01:49:44.506Z,87.11
2022-12-28T01:52:15.519Z,87.12
2022-12-28T01:54:46.011Z,87.24
2022-12-28T01:57:15.336Z,87.28
2022-12-28T01:59:52.033Z,87.43
2022-12-28T02:02:21.013Z,87.65
2022-12-28T02:04:49.628Z,87.56
2022-12-28T02:07:22.006Z,87.60
2022-12-28T02:10:41.028Z,87.50
2022-12-28T02:12:38.402Z,87.50
2022-12-28T02:15:08.926Z,87.58
2022-12-28T02:17:37.093Z,87.65
2022-12-28T02:20:06.840Z,87.70
2022-12-28T02:22:53.636Z,87.58
2022-12-28T02:25:58.008Z,87.44
2022-12-28T02:28:54.559Z,87.39
2022-12-28T02:31:26.841Z,87.46
2022-12-28T02:33:56.013Z,87.31
2022-12-28T02:36:25.931Z,87.19
2022-12-28T02:38:56.882Z,87.14
2022-12-28T02:41:26.513Z,87.03
2022-12-28T02:43:56.334Z,87.13
2022-12-28T02:46:44.056Z,87.13
2022-12-28T02:49:36.624Z,87.08
2022-12-28T02:52:08.723Z,86.92
2022-12-28T02:55:22.155Z,86.94
2022-12-28T02:58:12.698Z,86.98
2022-12-28T03:00:53.437Z,87.05
2022-12-28T03:03:24.638Z,86.95
2022-12-28T03:06:19.529Z,87.08
2022-12-28T03:08:54.815Z,87.17
2022-12-28T03:11:29.164Z,87.24
2022-12-28T03:14:02.625Z,87.22
2022-12-28T03:16:54.906Z,87.27
2022-12-28T03:19:42.441Z,87.02
2022-12-28T03:22:28.927Z,86.97
2022-12-28T03:25:16.061Z,86.95
2022-12-28T03:28:02.036Z,86.92
2022-12-28T03:30:48.837Z,87.01
2022-12-28T03:33:18.485Z,87.12
2022-12-28T03:35:50.349Z,87.24
2022-12-28T03:38:27.524Z,87.19
2022-12-28T03:41:02.174Z,87.33
2022-12-28T03:43:41.595Z,87.29
2022-12-28T03:46:15.248Z,87.18
2022-12-28T03:48:45.325Z,87.23
2022-12-28T03:51:16.022Z,87.27
2022-12-28T03:53:45.764Z,87.13
2022-12-28T03:56:15.562Z,87.19
2022-12-28T03:58:43.628Z,87.06
2022-12-28T04:01:12.493Z,87.09
2022-12-28T04:03:40.908Z,87.13
2022-12-28T04:06:12.892Z,87.12
2022-12-28T04:08:40.930Z,87.21
2022-12-28T04:11:09.571Z,87.24
2022-12-28T04:13:37.679Z,87.28
2022-12-28T04:16:08.974Z,87.31
2022-12-28T04:18:37.072Z,87.29
2022-12-28T04:21:05.383Z,87.33
2022-12-28T04:23:35.035Z,87.33
2022-12-28T04:26:05.909Z,87.19
2022-12-28T04:28:34.810Z,87.08
2022-12-28T04:31:03.591Z,87.08
2022-12-28T04:33:33.602Z,87.05
2022-12-28T04:36:06.602Z,87.25
2022-12-28T04:38:36.031Z,87.23
2022-12-28T04:41:05.339Z,87.24
2022-12-28T04:43:34.104Z,87.09
2022-12-28T04:46:03.415Z,86.98
2022-12-28T04:48:31.904Z,87.01
2022-12-28T04:51:00.178Z,87.09
2022-12-28T04:53:28.251Z,87.20
2022-12-28T04:55:59.606Z,87.22
2022-12-28T04:58:27.657Z,87.03
2022-12-28T05:00:55.723Z,87.03
2022-12-28T05:03:23.790Z,86.79
2022-12-28T05:05:51.820Z,86.83
2022-12-28T05:08:19.880Z,86.83
2022-12-28T05:10:47.860Z,86.56
2022-12-28T05:13:17.221Z,86.59
2022-12-28T05:15:45.286Z,86.67
2022-12-28T05:18:13.639Z,86.62
2022-12-28T05:20:41.597Z,86.50
2022-12-28T05:23:09.931Z,86.59
2022-12-28T05:25:37.990Z,86.57
2022-12-28T05:28:06.101Z,86.54
2022-12-28T05:30:35.573Z,86.40
2022-12-28T05:33:03.920Z,86.15
2022-12-28T05:35:31.909Z,85.82
2022-12-28T05:37:59.906Z,85.58
2022-12-28T05:40:27.949Z,85.75
2022-12-28T05:42:55.979Z,85.56
2022-12-28T05:45:24.038Z,85.37
2022-12-28T05:47:55.131Z,85.25
2022-12-28T05:50:23.113Z,84.99
2022-12-28T05:52:51.269Z,84.82
2022-12-28T05:55:19.323Z,84.71
2022-12-28T05:57:47.356Z,84.55
2022-12-28T06:00:15.912Z,84.55
2022-12-28T06:02:44.013Z,84.67
2022-12-28T06:05:14.215Z,84.12
2022-12-28T06:07:42.269Z,84.24
2022-12-28T06:10:10.709Z,83.96
2022-12-28T06:12:38.746Z,83.95
2022-12-28T06:15:07.944Z,83.94
2022-12-28T06:17:36.002Z,83.70
2022-12-28T06:20:04.165Z,83.86
2022-12-28T06:22:33.563Z,83.70
2022-12-28T06:25:01.647Z,83.66
2022-12-28T06:27:29.945Z,83.85
2022-12-28T06:29:58.213Z,84.14
2022-12-28T06:32:26.296Z,84.60
2022-12-28T06:34:54.322Z,85.06
2022-12-28T06:37:22.316Z,85.56
2022-12-28T06:39:51.661Z,85.92
2022-12-28T06:42:19.654Z,86.34
2022-12-28T06:44:47.600Z,86.85
2022-12-28T06:47:15.707Z,87.24
2022-12-28T06:49:43.791Z,87.53
2022-12-28T06:52:11.766Z,87.74
2022-12-28T06:54:39.896Z,88.04
2022-12-28T06:57:09.289Z,88.40
2022-12-28T06:59:37.310Z,88.80
2022-12-28T07:02:05.465Z,89.03
2022-12-28T07:04:33.660Z,89.25
2022-12-28T07:07:01.656Z,89.45
2022-12-28T07:09:29.802Z,89.64
2022-12-28T07:11:57.807Z,89.82
2022-12-28T07:14:27.178Z,89.92
2022-12-28T07:16:55.392Z,90.04
2022-12-28T07:19:23.424Z,90.23
2022-12-28T07:21:51.527Z,90.32
2022-12-28T07:24:19.579Z,90.48
2022-12-28T07:26:47.710Z,90.50
2022-12-28T07:29:15.868Z,90.68
2022-12-28T07:31:46.091Z,90.79
2022-12-28T07:34:17.793Z,90.93
2022-12-28T07:36:45.994Z,91.04
2022-12-28T07:39:13.993Z,90.99
2022-12-28T07:41:42.162Z,91.01
2022-12-28T07:44:10.188Z,91.06
2022-12-28T07:46:38.862Z,90.99
2022-12-28T07:49:08.292Z,91.08
2022-12-28T07:51:38.022Z,91.08
2022-12-28T07:54:06.662Z,91.09
2022-12-28T07:59:05.000Z,91.10
2022-12-28T08:01:35.308Z,91.07
2022-12-28T08:04:05.311Z,91.15
2022-12-28T08:06:36.572Z,91.20
2022-12-28T08:09:05.479Z,91.23
2022-12-28T08:11:35.678Z,91.29
2022-12-28T08:14:04.434Z,91.25
2022-12-28T08:16:33.955Z,91.29
2022-12-28T08:19:02.714Z,91.25
2022-12-28T08:21:32.406Z,91.18
2022-12-28T08:24:02.566Z,91.25
2022-12-28T08:26:32.303Z,91.17
2022-12-28T08:29:02.561Z,91.10
2022-12-28T08:31:32.011Z,90.92
2022-12-28T08:34:01.265Z,90.82
2022-12-28T08:36:29.548Z,90.82
2022-12-28T08:38:58.642Z,90.65
2022-12-28T08:41:29.284Z,90.26
2022-12-28T08:43:57.923Z,90.07
2022-12-28T08:46:27.579Z,89.90
2022-12-28T08:48:57.805Z,89.65
2022-12-28T08:51:27.243Z,89.48
2022-12-28T08:53:55.583Z,89.19
2022-12-28T08:56:25.160Z,88.95
2022-12-28T08:58:55.138Z,88.80
2022-12-28T09:01:25.760Z,88.55
2022-12-28T09:03:55.605Z,88.31
2022-12-28T09:06:25.368Z,88.22
2022-12-28T09:09:10.320Z,88.04
2022-12-28T09:11:39.398Z,87.92
2022-12-28T09:14:10.099Z,88.01
2022-12-28T09:16:39.417Z,88.09
2022-12-28T09:19:09.351Z,88.20
2022-12-28T09:21:39.133Z,88.23
2022-12-28T09:24:08.124Z,87.98
2022-12-28T09:26:37.822Z,87.97
2022-12-28T09:29:09.398Z,87.84
2022-12-28T09:31:38.571Z,87.68
2022-12-28T09:36:55.221Z,87.50
2022-12-28T09:39:24.946Z,87.33
2022-12-28T09:41:56.010Z,86.99
2022-12-28T09:44:39.731Z,86.70
2022-12-28T09:47:17.197Z,86.57
2022-12-28T09:49:47.966Z,86.32
2022-12-28T09:52:27.320Z,86.21
2022-12-28T09:54:55.693Z,86.13
2022-12-28T09:57:24.035Z,85.91
2022-12-28T09:59:54.254Z,86.00
2022-12-28T10:02:26.590Z,85.86
2022-12-28T10:04:54.688Z,85.94
2022-12-28T10:07:23.050Z,85.78
2022-12-28T10:09:51.224Z,85.83
2022-12-28T10:12:21.576Z,86.04
2022-12-28T10:14:50.330Z,86.31
2022-12-28T10:17:24.037Z,86.56
2022-12-28T10:19:52.548Z,86.82
2022-12-28T10:22:21.975Z,86.90
2022-12-28T10:24:50.296Z,87.15
2022-12-28T10:27:22.052Z,87.44
2022-12-28T10:29:51.436Z,87.44
2022-12-28T10:32:21.327Z,87.16
2022-12-28T10:34:56.919Z,87.14
2022-12-28T10:37:26.534Z,86.90
2022-12-28T10:39:56.823Z,86.84
2022-12-28T10:42:27.738Z,86.79
2022-12-28T10:45:01.807Z,86.55
2022-12-28T10:47:35.539Z,86.41
2022-12-28T10:52:58.151Z,85.68
2022-12-28T10:55:33.254Z,85.61
2022-12-28T10:58:29.981Z,85.32
2022-12-28T11:01:01.375Z,85.05
2022-12-28T11:03:35.258Z,85.05
2022-12-28T11:06:26.827Z,84.84
2022-12-28T11:09:16.785Z,84.74
2022-12-28T11:11:46.800Z,84.57
2022-12-28T11:14:19.292Z,84.26
2022-12-28T11:16:47.456Z,84.24
2022-12-28T11:19:17.531Z,84.22
2022-12-28T11:21:45.704Z,84.20
2022-12-28T11:24:15.982Z,84.34
2022-12-28T11:26:45.784Z,84.38
2022-12-28T11:29:15.713Z,84.41
2022-12-28T11:31:47.022Z,84.53
2022-12-28T11:34:19.916Z,84.63
2022-12-28T11:36:48.824Z,84.71
2022-12-28T11:39:42.756Z,84.75
2022-12-28T11:42:38.041Z,84.90
2022-12-28T11:44:59.162Z,84.87
2022-12-28T11:47:33.279Z,84.83
2022-12-28T11:50:49.912Z,84.98
2022-12-28T11:53:24.561Z,85.09
2022-12-28T11:56:10.829Z,85.21
2022-12-28T11:59:03.469Z,85.15
2022-12-28T12:01:47.477Z,85.14
2022-12-28T12:04:40.476Z,84.94
2022-12-28T12:07:23.655Z,84.72
2022-12-28T12:10:15.794Z,84.54
2022-12-28T12:12:52.205Z,84.19
2022-12-28T12:15:22.425Z,84.25
2022-12-28T12:17:54.762Z,84.04
2022-12-28T12:20:24.778Z,83.55
2022-12-28T12:22:56.273Z,83.28
2022-12-28T12:25:30.462Z,83.23
2022-12-28T12:28:00.533Z,83.13
2022-12-28T12:30:30.625Z,83.02
2022-12-28T12:33:01.374Z,83.10
2022-12-28T12:35:31.871Z,82.96
2022-12-28T12:38:04.502Z,83.18
2022-12-28T12:40:55.319Z,83.33
2022-12-28T12:43:30.269Z,83.35
2022-12-28T12:46:09.435Z,83.52
2022-12-28T12:48:47.300Z,83.20
2022-12-28T12:51:23.661Z,83.09
2022-12-28T12:54:06.652Z,82.96
2022-12-28T12:56:42.532Z,82.87
2022-12-28T12:59:23.160Z,82.68
2022-12-28T13:01:55.770Z,82.73
2022-12-28T13:04:26.418Z,82.76
2022-12-28T13:06:58.260Z,82.65
2022-12-28T13:09:28.138Z,82.73
2022-12-28T13:11:57.968Z,82.72
2022-12-28T13:14:26.193Z,82.80
2022-12-28T13:16:55.552Z,82.65
2022-12-28T13:19:25.649Z,82.76
2022-12-28T13:21:54.258Z,82.83
2022-12-28T13:24:23.715Z,82.89
2022-12-28T13:26:52.355Z,82.85
2022-12-28T13:29:23.789Z,83.00
2022-12-28T13:31:52.333Z,83.02
2022-12-28T13:34:23.521Z,82.99
2022-12-28T13:36:54.507Z,83.14
2022-12-28T13:39:23.093Z,83.23
2022-12-28T13:41:52.424Z,83.34
2022-12-28T13:44:33.811Z,83.27
2022-12-28T13:47:05.817Z,83.36
2022-12-28T13:49:37.849Z,83.55
2022-12-28T13:52:09.791Z,83.58
2022-12-28T13:54:38.982Z,83.83
2022-12-28T13:57:44.679Z,84.13
2022-12-28T13:59:57.498Z,84.27
2022-12-28T14:02:27.376Z,84.40
2022-12-28T14:04:55.976Z,84.71
2022-12-28T14:07:26.769Z,84.84
2022-12-28T14:09:55.197Z,85.08
2022-12-28T14:12:23.620Z,85.30
2022-12-28T14:14:52.130Z,85.41
2022-12-28T14:17:21.989Z,85.65
2022-12-28T14:19:50.240Z,85.84
2022-12-28T14:22:32.203Z,86.16
2022-12-28T14:25:06.069Z,86.39
2022-12-28T14:27:36.709Z,86.39
2022-12-28T14:30:06.912Z,86.38
2022-12-28T14:35:27.393Z,86.27
2022-12-28T14:37:56.845Z,86.33
2022-12-28T14:40:30.540Z,86.16
2022-12-28T14:42:59.229Z,86.08
2022-12-28T14:48:35.135Z,86.07
2022-12-28T14:51:06.437Z,86.10
2022-12-28T14:53:35.037Z,86.06
2022-12-28T14:56:06.077Z,86.15
2022-12-28T14:58:40.426Z,86.24
2022-12-28T15:00:25.275Z,86.12
2022-12-28T15:01:10.507Z,86.30
2022-12-28T15:03:54.366Z,86.48
2022-12-28T15:06:23.184Z,86.66
2022-12-28T15:08:51.308Z,86.80
2022-12-28T15:11:19.925Z,86.75
2022-12-28T15:13:48.502Z,86.79
2022-12-28T15:16:18.814Z,86.71
2022-12-28T15:18:47.095Z,86.67
2022-12-28T15:21:18.650Z,86.53
2022-12-28T15:23:49.886Z,86.46
2022-12-28T15:26:18.237Z,86.30
2022-12-28T15:28:46.326Z,86.42
2022-12-28T15:31:16.992Z,86.38
2022-12-28T15:33:45.908Z,86.50
2022-12-28T15:36:17.798Z,86.37
2022-12-28T15:38:46.148Z,86.18
2022-12-28T15:41:31.807Z,86.03
2022-12-28T15:43:59.835Z,86.02
2022-12-28T15:46:27.970Z,85.82
2022-12-28T15:48:56.014Z,85.59
2022-12-28T15:51:25.310Z,85.32
2022-12-28T15:53:53.282Z,84.97
2022-12-28T15:56:22.662Z,84.84
2022-12-28T15:58:53.636Z,84.82
2022-12-28T16:01:22.147Z,84.59
2022-12-28T16:03:50.952Z,84.49
2022-12-28T16:06:19.383Z,84.62
2022-12-28T16:08:48.971Z,84.51
2022-12-28T16:11:19.041Z,84.49
2022-12-28T16:13:52.064Z,84.43
2022-12-28T16:16:20.703Z,84.34
2022-12-28T16:18:49.132Z,84.53
2022-12-28T16:21:17.775Z,84.59
2022-12-28T16:23:47.652Z,84.51
2022-12-28T16:26:15.771Z,84.65
2022-12-28T16:28:44.057Z,84.61
2022-12-28T16:31:23.125Z,84.41
2022-12-28T16:33:54.687Z,84.55
2022-12-28T16:36:23.496Z,84.43
2022-12-28T16:38:52.954Z,84.39
2022-12-28T16:41:21.459Z,84.37
2022-12-28T16:43:49.539Z,84.40
2022-12-28T16:46:18.246Z,84.16
2022-12-28T16:48:46.301Z,84.10
2022-12-28T16:51:14.389Z,84.12
2022-12-28T16:53:42.540Z,84.36
2022-12-28T16:56:12.022Z,84.86
2022-12-28T16:58:41.699Z,85.53
2022-12-28T17:01:12.145Z,86.12
2022-12-28T17:03:42.445Z,86.68
2022-12-28T17:06:10.747Z,87.09
2022-12-28T17:08:38.777Z,87.31
2022-12-28T17:11:10.122Z,87.25
2022-12-28T17:13:40.460Z,87.15
2022-12-28T17:16:08.823Z,87.17
2022-12-28T17:18:37.173Z,87.07
2022-12-28T17:21:07.440Z,86.75
2022-12-28T17:23:35.851Z,86.47
2022-12-28T17:26:03.935Z,86.29
2022-12-28T17:28:31.908Z,86.03
2022-12-28T17:31:10.358Z,85.80
2022-12-28T17:33:40.267Z,85.48
2022-12-28T17:36:09.152Z,85.34
2022-12-28T17:38:37.667Z,84.86
2022-12-28T17:41:09.817Z,84.63
2022-12-28T17:43:38.219Z,84.59
2022-12-28T17:46:08.027Z,84.48
2022-12-28T17:48:35.995Z,84.62
2022-12-28T17:51:11.035Z,84.72
2022-12-28T17:53:41.820Z,84.43
2022-12-28T17:56:12.221Z,84.18
2022-12-28T17:58:40.655Z,83.79
2022-12-28T18:01:11.168Z,83.61
2022-12-28T18:03:39.884Z,83.22
2022-12-28T18:06:08.168Z,83.19
2022-12-28T18:08:36.199Z,82.99
2022-12-28T18:11:04.231Z,82.74
2022-12-28T18:13:32.427Z,82.53
2022-12-28T18:16:00.601Z,82.42
2022-12-28T18:18:29.998Z,82.11
2022-12-28T18:20:58.926Z,81.98
2022-12-28T18:23:28.038Z,81.88
2022-12-28T18:26:02.321Z,82.32
2022-12-28T18:28:30.403Z,82.61
2022-12-28T18:31:02.084Z,82.83
2022-12-28T18:33:32.166Z,82.75
2022-12-28T18:36:00.439Z,82.78
2022-12-28T18:38:28.615Z,82.91
2022-12-28T18:40:58.462Z,82.93
2022-12-28T18:43:26.812Z,83.07
2022-12-28T18:45:57.238Z,83.27
2022-12-28T18:48:26.218Z,83.60
2022-12-28T18:50:57.024Z,83.81
2022-12-28T18:53:25.986Z,84.23
2022-12-28T18:55:58.248Z,84.71
2022-12-28T18:58:26.742Z,85.11
2022-12-28T19:00:54.797Z,85.64
2022-12-28T19:03:23.214Z,86.07
2022-12-28T19:06:02.660Z,86.59
2022-12-28T19:08:31.894Z,87.15
2022-12-28T19:11:00.228Z,87.67
2022-12-28T19:13:28.586Z,88.17
2022-12-28T19:15:56.857Z,88.50
2022-12-28T19:18:24.991Z,88.96
2022-12-28T19:20:58.686Z,89.27
2022-12-28T19:23:26.979Z,89.58
2022-12-28T19:25:59.417Z,89.97
2022-12-28T19:28:28.695Z,90.13
2022-12-28T19:31:02.701Z,90.40
2022-12-28T19:33:33.266Z,90.60
2022-12-28T19:36:02.716Z,90.72
2022-12-28T19:38:30.755Z,90.91
2022-12-28T19:40:58.838Z,90.99
2022-12-28T19:43:26.818Z,91.08
2022-12-28T19:46:02.263Z,91.04
2022-12-28T19:48:33.801Z,91.14
2022-12-28T19:51:03.408Z,91.09
2022-12-28T19:53:31.476Z,91.12
2022-12-28T19:55:59.850Z,91.14
2022-12-28T19:58:28.037Z,91.20
2022-12-28T20:00:56.848Z,91.17
2022-12-28T20:03:26.732Z,91.17
2022-12-28T20:05:54.798Z,91.25
2022-12-28T20:08:24.079Z,91.22
2022-12-28T20:10:55.983Z,91.20
2022-12-28T20:13:24.277Z,91.31
2022-12-28T20:15:52.550Z,91.28
2022-12-28T20:18:20.619Z,91.23
2022-12-28T20:21:17.820Z,91.06
2022-12-28T20:23:38.125Z,90.87
2022-12-28T20:26:06.630Z,90.66
2022-12-28T20:28:35.302Z,90.46
2022-12-28T20:31:06.798Z,90.35
2022-12-28T20:33:36.363Z,90.11
2022-12-28T20:36:06.538Z,89.63
2022-12-28T20:38:35.501Z,89.30
2022-12-28T20:41:06.476Z,88.93
2022-12-28T20:43:34.389Z,88.48
2022-12-28T20:46:02.791Z,88.26
2022-12-28T20:48:30.919Z,87.81
2022-12-28T20:51:00.008Z,87.63
2022-12-28T20:53:28.596Z,87.47
2022-12-28T20:56:08.317Z,87.26
2022-12-28T20:58:36.518Z,86.97
2022-12-28T21:01:05.087Z,86.66
2022-12-28T21:03:33.531Z,86.44
2022-12-28T21:06:01.619Z,86.36
2022-12-28T21:08:31.008Z,86.16
2022-12-28T21:10:59.556Z,85.88
2022-12-28T21:13:29.444Z,85.87
2022-12-28T21:15:58.327Z,85.89
2022-12-28T21:18:26.546Z,85.83
2022-12-28T21:20:57.383Z,85.74
2022-12-28T21:23:25.652Z,85.84
2022-12-28T21:25:53.664Z,85.85
2022-12-28T21:28:21.898Z,85.94
2022-12-28T21:30:55.578Z,85.93
2022-12-28T21:33:24.667Z,85.94
2022-12-28T21:36:00.104Z,85.82
2022-12-28T21:38:28.339Z,85.78
2022-12-28T21:41:01.091Z,85.66
2022-12-28T21:43:29.225Z,85.50
2022-12-28T21:46:02.660Z,85.55
2022-12-28T21:48:31.704Z,85.47
2022-12-28T21:51:05.201Z,85.50
2022-12-28T21:53:33.457Z,85.23
2022-12-28T21:56:01.452Z,85.22
2022-12-28T21:58:29.436Z,85.17
2022-12-28T22:01:19.253Z,85.18
2022-12-28T22:04:04.789Z,84.96
2022-12-28T22:06:32.860Z,84.74
2022-12-28T22:09:20.993Z,84.61
2022-12-28T22:12:07.050Z,84.49
2022-12-28T22:14:35.064Z,84.36
2022-12-28T22:17:06.365Z,84.27
2022-12-28T22:19:37.640Z,83.98
2022-12-28T22:22:05.675Z,83.92
2022-12-28T22:24:33.840Z,83.63
2022-12-28T22:27:01.813Z,83.56
2022-12-28T22:29:30.816Z,83.35
2022-12-28T22:31:59.878Z,83.33
2022-12-28T22:34:29.648Z,83.45
2022-12-28T22:36:57.733Z,83.84
2022-12-28T22:39:25.765Z,83.89
2022-12-28T22:41:53.779Z,84.42
2022-12-28T22:44:21.827Z,84.75
2022-12-28T22:46:49.793Z,84.99
2022-12-28T22:49:18.071Z,85.27
2022-12-28T22:51:47.766Z,85.37
2022-12-28T22:54:15.939Z,85.73
2022-12-28T22:56:43.910Z,86.14
2022-12-28T22:59:15.500Z,86.69
2022-12-28T23:01:44.482Z,87.08
2022-12-28T23:04:12.645Z,87.41
2022-12-28T23:06:40.716Z,87.41
2022-12-28T23:09:10.081Z,87.43
2022-12-28T23:11:39.404Z,87.51
2022-12-28T23:14:30.020Z,87.55
2022-12-28T23:16:58.699Z,87.55
2022-12-28T23:19:44.939Z,87.74
2022-12-28T23:22:32.314Z,88.00
2022-12-28T23:25:19.367Z,88.12
2022-12-28T23:27:47.822Z,88.29
2022-12-28T23:30:17.928Z,88.37
2022-12-28T23:32:46.434Z,88.23
2022-12-28T23:35:14.486Z,88.22
2022-12-28T23:37:42.992Z,88.09
2022-12-28T23:40:14.368Z,88.05
2022-12-28T23:42:43.589Z,88.09
2022-12-28T23:45:13.357Z,88.15
2022-12-28T23:47:41.847Z,88.01
2022-12-28T23:50:10.973Z,87.93
2022-12-28T23:52:39.405Z,87.82
2022-12-28T23:55:08.693Z,87.72
2022-12-28T23:57:38.620Z,87.60
